sensor_id;sensor_type;location;lat;lon;timestamp;P1;durP1;ratioP1;P2;durP2;ratioP2
76597;SDS011;65486;53.144;18.134;2023-07-31T00:00:43;3.70;;;2.10;;
76597;SDS011;65486;53.144;18.134;2023-07-31T00:03:26;4.10;;;2.40;;
76597;SDS011;65486;53.144;18.134;2023-07-31T00:05:53;6.00;;;2.10;;
76597;SDS011;65486;53.144;18.134;2023-07-31T00:08:20;3.90;;;1.80;;
76597;SDS011;65486;53.144;18.134;2023-07-31T00:10:47;5.20;;;2.10;;
76597;SDS011;65486;53.144;18.134;2023-07-31T00:13:17;6.70;;;2.50;;
76597;SDS011;65486;53.144;18.134;2023-07-31T00:15:44;4.90;;;1.80;;
76597;SDS011;65486;53.144;18.134;2023-07-31T00:18:11;3.60;;;1.80;;
76597;SDS011;65486;53.144;18.134;2023-07-31T00:20:38;5.10;;;2.50;;
76597;SDS011;65486;53.144;18.134;2023-07-31T00:23:05;5.70;;;2.10;;
76597;SDS011;65486;53.144;18.134;2023-07-31T00:25:32;6.60;;;2.30;;
76597;SDS011;65486;53.144;18.134;2023-07-31T00:27:59;3.20;;;1.90;;
76597;SDS011;65486;53.144;18.134;2023-07-31T00:30:26;4.80;;;2.00;;
76597;SDS011;65486;53.144;18.134;2023-07-31T00:32:54;3.80;;;1.70;;
76597;SDS011;65486;53.144;18.134;2023-07-31T00:35:21;2.80;;;1.80;;
76597;SDS011;65486;53.144;18.134;2023-07-31T00:37:48;5.10;;;2.30;;
76597;SDS011;65486;53.144;18.134;2023-07-31T00:40:18;5.60;;;2.10;;
76597;SDS011;65486;53.144;18.134;2023-07-31T00:42:45;2.70;;;1.70;;
76597;SDS011;65486;53.144;18.134;2023-07-31T00:45:12;5.80;;;2.30;;
76597;SDS011;65486;53.144;18.134;2023-07-31T00:47:39;3.60;;;2.00;;
76597;SDS011;65486;53.144;18.134;2023-07-31T00:50:07;4.30;;;2.80;;
76597;SDS011;65486;53.144;18.134;2023-07-31T00:52:35;4.40;;;2.90;;
76597;SDS011;65486;53.144;18.134;2023-07-31T00:55:03;4.20;;;1.80;;
76597;SDS011;65486;53.144;18.134;2023-07-31T00:57:31;5.20;;;2.20;;
76597;SDS011;65486;53.144;18.134;2023-07-31T00:59:59;4.10;;;2.20;;
76597;SDS011;65486;53.144;18.134;2023-07-31T01:02:28;4.10;;;2.10;;
76597;SDS011;65486;53.144;18.134;2023-07-31T01:04:55;3.80;;;2.10;;
76597;SDS011;65486;53.144;18.134;2023-07-31T01:10:11;4.90;;;2.30;;
76597;SDS011;65486;53.144;18.134;2023-07-31T01:12:44;4.00;;;2.10;;
76597;SDS011;65486;53.144;18.134;2023-07-31T01:15:17;4.40;;;2.60;;
76597;SDS011;65486;53.144;18.134;2023-07-31T01:17:44;4.70;;;2.70;;
76597;SDS011;65486;53.144;18.134;2023-07-31T01:20:17;4.20;;;2.70;;
76597;SDS011;65486;53.144;18.134;2023-07-31T01:26:01;3.40;;;2.00;;
76597;SDS011;65486;53.144;18.134;2023-07-31T01:31:19;3.60;;;2.60;;
76597;SDS011;65486;53.144;18.134;2023-07-31T01:33:53;4.60;;;1.90;;
76597;SDS011;65486;53.144;18.134;2023-07-31T01:36:24;6.50;;;2.60;;
76597;SDS011;65486;53.144;18.134;2023-07-31T01:38:51;7.00;;;2.60;;
76597;SDS011;65486;53.144;18.134;2023-07-31T01:41:18;4.20;;;2.60;;
76597;SDS011;65486;53.144;18.134;2023-07-31T01:43:47;6.20;;;2.40;;
76597;SDS011;65486;53.144;18.134;2023-07-31T01:46:16;6.60;;;2.60;;
76597;SDS011;65486;53.144;18.134;2023-07-31T01:48:43;6.70;;;2.80;;
76597;SDS011;65486;53.144;18.134;2023-07-31T01:51:10;6.50;;;2.30;;
76597;SDS011;65486;53.144;18.134;2023-07-31T01:53:37;5.20;;;2.50;;
76597;SDS011;65486;53.144;18.134;2023-07-31T01:56:04;3.70;;;2.20;;
76597;SDS011;65486;53.144;18.134;2023-07-31T01:58:37;4.70;;;2.30;;
76597;SDS011;65486;53.144;18.134;2023-07-31T02:01:04;4.90;;;2.40;;
76597;SDS011;65486;53.144;18.134;2023-07-31T02:03:31;5.50;;;2.80;;
76597;SDS011;65486;53.144;18.134;2023-07-31T02:05:58;5.70;;;2.80;;
76597;SDS011;65486;53.144;18.134;2023-07-31T02:08:26;6.40;;;3.00;;
76597;SDS011;65486;53.144;18.134;2023-07-31T02:10:53;7.00;;;3.00;;
76597;SDS011;65486;53.144;18.134;2023-07-31T02:13:21;3.90;;;2.20;;
76597;SDS011;65486;53.144;18.134;2023-07-31T02:15:48;6.60;;;2.50;;
76597;SDS011;65486;53.144;18.134;2023-07-31T02:18:15;7.50;;;2.70;;
76597;SDS011;65486;53.144;18.134;2023-07-31T02:20:42;5.00;;;2.40;;
76597;SDS011;65486;53.144;18.134;2023-07-31T02:23:13;7.10;;;2.40;;
76597;SDS011;65486;53.144;18.134;2023-07-31T02:25:42;8.30;;;3.10;;
76597;SDS011;65486;53.144;18.134;2023-07-31T02:28:09;5.50;;;2.50;;
76597;SDS011;65486;53.144;18.134;2023-07-31T02:30:36;7.20;;;3.00;;
76597;SDS011;65486;53.144;18.134;2023-07-31T02:33:04;4.90;;;2.70;;
76597;SDS011;65486;53.144;18.134;2023-07-31T02:35:31;6.40;;;2.60;;
76597;SDS011;65486;53.144;18.134;2023-07-31T02:37:59;5.30;;;2.90;;
76597;SDS011;65486;53.144;18.134;2023-07-31T02:40:27;6.90;;;2.80;;
76597;SDS011;65486;53.144;18.134;2023-07-31T02:42:54;6.50;;;3.20;;
76597;SDS011;65486;53.144;18.134;2023-07-31T02:45:21;6.70;;;2.50;;
76597;SDS011;65486;53.144;18.134;2023-07-31T02:47:49;6.30;;;3.00;;
76597;SDS011;65486;53.144;18.134;2023-07-31T02:50:15;7.60;;;3.50;;
76597;SDS011;65486;53.144;18.134;2023-07-31T02:52:42;6.40;;;3.10;;
76597;SDS011;65486;53.144;18.134;2023-07-31T02:55:09;5.70;;;3.10;;
76597;SDS011;65486;53.144;18.134;2023-07-31T02:57:37;5.70;;;3.10;;
76597;SDS011;65486;53.144;18.134;2023-07-31T03:00:04;5.00;;;3.10;;
76597;SDS011;65486;53.144;18.134;2023-07-31T03:02:33;6.90;;;2.80;;
76597;SDS011;65486;53.144;18.134;2023-07-31T03:05:00;8.70;;;3.20;;
76597;SDS011;65486;53.144;18.134;2023-07-31T03:07:27;7.40;;;2.90;;
76597;SDS011;65486;53.144;18.134;2023-07-31T03:09:55;5.40;;;3.30;;
76597;SDS011;65486;53.144;18.134;2023-07-31T03:12:22;4.20;;;2.80;;
76597;SDS011;65486;53.144;18.134;2023-07-31T03:14:51;4.20;;;2.70;;
76597;SDS011;65486;53.144;18.134;2023-07-31T03:17:18;5.00;;;2.60;;
76597;SDS011;65486;53.144;18.134;2023-07-31T03:19:45;5.80;;;2.80;;
76597;SDS011;65486;53.144;18.134;2023-07-31T03:22:12;7.50;;;3.40;;
76597;SDS011;65486;53.144;18.134;2023-07-31T03:24:39;5.40;;;2.80;;
76597;SDS011;65486;53.144;18.134;2023-07-31T03:27:06;10.50;;;3.20;;
76597;SDS011;65486;53.144;18.134;2023-07-31T03:29:35;5.60;;;3.10;;
76597;SDS011;65486;53.144;18.134;2023-07-31T03:32:03;6.80;;;3.10;;
76597;SDS011;65486;53.144;18.134;2023-07-31T03:34:34;4.80;;;3.00;;
76597;SDS011;65486;53.144;18.134;2023-07-31T03:37:01;5.90;;;2.80;;
76597;SDS011;65486;53.144;18.134;2023-07-31T03:39:28;4.60;;;2.60;;
76597;SDS011;65486;53.144;18.134;2023-07-31T03:41:55;4.80;;;2.50;;
76597;SDS011;65486;53.144;18.134;2023-07-31T03:44:22;4.60;;;2.90;;
76597;SDS011;65486;53.144;18.134;2023-07-31T03:46:49;6.80;;;3.70;;
76597;SDS011;65486;53.144;18.134;2023-07-31T03:49:16;6.40;;;2.60;;
76597;SDS011;65486;53.144;18.134;2023-07-31T03:51:43;6.40;;;3.30;;
76597;SDS011;65486;53.144;18.134;2023-07-31T03:54:11;4.40;;;2.80;;
76597;SDS011;65486;53.144;18.134;2023-07-31T03:56:41;5.80;;;2.80;;
76597;SDS011;65486;53.144;18.134;2023-07-31T03:59:08;7.80;;;3.20;;
76597;SDS011;65486;53.144;18.134;2023-07-31T04:01:36;5.70;;;2.80;;
76597;SDS011;65486;53.144;18.134;2023-07-31T04:04:03;4.90;;;3.00;;
76597;SDS011;65486;53.144;18.134;2023-07-31T04:06:31;4.60;;;2.20;;
76597;SDS011;65486;53.144;18.134;2023-07-31T04:08:59;5.80;;;2.90;;
76597;SDS011;65486;53.144;18.134;2023-07-31T04:11:26;6.80;;;2.70;;
76597;SDS011;65486;53.144;18.134;2023-07-31T04:13:54;8.20;;;2.30;;
76597;SDS011;65486;53.144;18.134;2023-07-31T04:16:21;4.90;;;2.50;;
76597;SDS011;65486;53.144;18.134;2023-07-31T04:18:51;3.80;;;1.90;;
76597;SDS011;65486;53.144;18.134;2023-07-31T04:21:18;6.20;;;2.60;;
76597;SDS011;65486;53.144;18.134;2023-07-31T04:23:45;5.30;;;2.20;;
76597;SDS011;65486;53.144;18.134;2023-07-31T04:26:13;5.90;;;2.50;;
76597;SDS011;65486;53.144;18.134;2023-07-31T04:28:40;6.60;;;2.80;;
76597;SDS011;65486;53.144;18.134;2023-07-31T04:31:07;5.60;;;2.60;;
76597;SDS011;65486;53.144;18.134;2023-07-31T04:33:35;5.40;;;3.00;;
76597;SDS011;65486;53.144;18.134;2023-07-31T04:36:02;7.80;;;3.10;;
76597;SDS011;65486;53.144;18.134;2023-07-31T04:38:30;5.70;;;3.20;;
76597;SDS011;65486;53.144;18.134;2023-07-31T04:40:57;6.80;;;2.80;;
76597;SDS011;65486;53.144;18.134;2023-07-31T04:43:24;4.50;;;2.70;;
76597;SDS011;65486;53.144;18.134;2023-07-31T04:45:51;6.00;;;2.60;;
76597;SDS011;65486;53.144;18.134;2023-07-31T04:48:20;5.60;;;2.70;;
76597;SDS011;65486;53.144;18.134;2023-07-31T04:50:47;4.90;;;2.20;;
76597;SDS011;65486;53.144;18.134;2023-07-31T04:53:15;5.90;;;2.80;;
76597;SDS011;65486;53.144;18.134;2023-07-31T04:55:42;5.20;;;2.30;;
76597;SDS011;65486;53.144;18.134;2023-07-31T04:58:09;6.20;;;2.90;;
76597;SDS011;65486;53.144;18.134;2023-07-31T05:00:36;6.20;;;2.50;;
76597;SDS011;65486;53.144;18.134;2023-07-31T05:03:03;6.70;;;2.20;;
76597;SDS011;65486;53.144;18.134;2023-07-31T05:05:31;5.80;;;2.20;;
76597;SDS011;65486;53.144;18.134;2023-07-31T05:07:58;5.40;;;2.30;;
76597;SDS011;65486;53.144;18.134;2023-07-31T05:10:25;4.40;;;2.30;;
76597;SDS011;65486;53.144;18.134;2023-07-31T05:12:52;4.40;;;2.40;;
76597;SDS011;65486;53.144;18.134;2023-07-31T05:15:20;5.80;;;2.10;;
76597;SDS011;65486;53.144;18.134;2023-07-31T05:17:50;4.30;;;2.20;;
76597;SDS011;65486;53.144;18.134;2023-07-31T05:20:20;5.90;;;1.60;;
76597;SDS011;65486;53.144;18.134;2023-07-31T05:22:50;4.90;;;2.30;;
76597;SDS011;65486;53.144;18.134;2023-07-31T05:25:18;3.90;;;1.80;;
76597;SDS011;65486;53.144;18.134;2023-07-31T05:27:48;3.70;;;1.50;;
76597;SDS011;65486;53.144;18.134;2023-07-31T05:30:15;7.10;;;2.30;;
76597;SDS011;65486;53.144;18.134;2023-07-31T05:32:42;6.00;;;2.40;;
76597;SDS011;65486;53.144;18.134;2023-07-31T05:35:11;6.60;;;2.10;;
76597;SDS011;65486;53.144;18.134;2023-07-31T05:37:38;6.70;;;2.10;;
76597;SDS011;65486;53.144;18.134;2023-07-31T05:40:05;5.90;;;2.00;;
76597;SDS011;65486;53.144;18.134;2023-07-31T05:42:32;4.30;;;1.60;;
76597;SDS011;65486;53.144;18.134;2023-07-31T05:45:00;3.10;;;1.10;;
76597;SDS011;65486;53.144;18.134;2023-07-31T05:47:28;4.50;;;1.50;;
76597;SDS011;65486;53.144;18.134;2023-07-31T05:49:55;4.60;;;2.30;;
76597;SDS011;65486;53.144;18.134;2023-07-31T05:52:22;3.60;;;1.50;;
76597;SDS011;65486;53.144;18.134;2023-07-31T05:54:50;3.10;;;1.10;;
76597;SDS011;65486;53.144;18.134;2023-07-31T05:57:19;3.40;;;1.50;;
76597;SDS011;65486;53.144;18.134;2023-07-31T05:59:46;4.70;;;2.00;;
76597;SDS011;65486;53.144;18.134;2023-07-31T06:02:13;4.10;;;1.80;;
76597;SDS011;65486;53.144;18.134;2023-07-31T06:04:40;4.30;;;1.30;;
76597;SDS011;65486;53.144;18.134;2023-07-31T06:07:07;5.70;;;1.60;;
76597;SDS011;65486;53.144;18.134;2023-07-31T06:09:35;4.00;;;1.20;;
76597;SDS011;65486;53.144;18.134;2023-07-31T06:12:02;2.90;;;1.10;;
76597;SDS011;65486;53.144;18.134;2023-07-31T06:14:29;5.80;;;2.10;;
76597;SDS011;65486;53.144;18.134;2023-07-31T06:16:55;4.70;;;1.80;;
76597;SDS011;65486;53.144;18.134;2023-07-31T06:19:22;3.70;;;1.60;;
76597;SDS011;65486;53.144;18.134;2023-07-31T06:21:49;3.60;;;1.50;;
76597;SDS011;65486;53.144;18.134;2023-07-31T06:24:16;2.40;;;1.60;;
76597;SDS011;65486;53.144;18.134;2023-07-31T06:26:46;2.10;;;1.10;;
76597;SDS011;65486;53.144;18.134;2023-07-31T06:29:13;2.20;;;1.20;;
76597;SDS011;65486;53.144;18.134;2023-07-31T06:31:41;3.40;;;1.60;;
76597;SDS011;65486;53.144;18.134;2023-07-31T06:34:08;3.90;;;1.40;;
76597;SDS011;65486;53.144;18.134;2023-07-31T06:36:35;3.70;;;1.30;;
76597;SDS011;65486;53.144;18.134;2023-07-31T06:39:07;5.80;;;1.80;;
76597;SDS011;65486;53.144;18.134;2023-07-31T06:41:35;2.60;;;1.20;;
76597;SDS011;65486;53.144;18.134;2023-07-31T06:44:02;2.50;;;1.30;;
76597;SDS011;65486;53.144;18.134;2023-07-31T06:46:29;2.50;;;0.90;;
76597;SDS011;65486;53.144;18.134;2023-07-31T06:48:56;4.60;;;1.10;;
76597;SDS011;65486;53.144;18.134;2023-07-31T06:51:23;3.00;;;1.00;;
76597;SDS011;65486;53.144;18.134;2023-07-31T06:53:50;2.90;;;1.00;;
76597;SDS011;65486;53.144;18.134;2023-07-31T06:56:17;2.70;;;0.90;;
76597;SDS011;65486;53.144;18.134;2023-07-31T06:58:44;4.40;;;1.10;;
76597;SDS011;65486;53.144;18.134;2023-07-31T07:01:12;3.40;;;1.00;;
76597;SDS011;65486;53.144;18.134;2023-07-31T07:03:39;4.20;;;1.20;;
76597;SDS011;65486;53.144;18.134;2023-07-31T07:06:07;7.30;;;1.10;;
76597;SDS011;65486;53.144;18.134;2023-07-31T07:08:34;2.50;;;0.90;;
76597;SDS011;65486;53.144;18.134;2023-07-31T07:11:01;4.60;;;1.10;;
76597;SDS011;65486;53.144;18.134;2023-07-31T07:13:28;3.50;;;1.50;;
76597;SDS011;65486;53.144;18.134;2023-07-31T07:15:55;4.70;;;1.30;;
76597;SDS011;65486;53.144;18.134;2023-07-31T07:18:23;3.10;;;1.30;;
76597;SDS011;65486;53.144;18.134;2023-07-31T07:20:51;6.10;;;2.60;;
76597;SDS011;65486;53.144;18.134;2023-07-31T07:23:19;2.30;;;0.90;;
76597;SDS011;65486;53.144;18.134;2023-07-31T07:25:47;3.00;;;1.40;;
76597;SDS011;65486;53.144;18.134;2023-07-31T07:28:14;4.00;;;1.50;;
76597;SDS011;65486;53.144;18.134;2023-07-31T07:30:43;4.40;;;1.50;;
76597;SDS011;65486;53.144;18.134;2023-07-31T07:33:10;4.60;;;1.00;;
76597;SDS011;65486;53.144;18.134;2023-07-31T07:35:38;4.00;;;1.30;;
76597;SDS011;65486;53.144;18.134;2023-07-31T07:38:05;4.00;;;1.40;;
76597;SDS011;65486;53.144;18.134;2023-07-31T07:40:32;2.90;;;1.10;;
76597;SDS011;65486;53.144;18.134;2023-07-31T07:42:59;4.20;;;1.30;;
76597;SDS011;65486;53.144;18.134;2023-07-31T07:45:30;3.00;;;1.60;;
76597;SDS011;65486;53.144;18.134;2023-07-31T07:47:57;3.50;;;1.20;;
76597;SDS011;65486;53.144;18.134;2023-07-31T07:50:25;3.10;;;1.10;;
76597;SDS011;65486;53.144;18.134;2023-07-31T07:52:52;4.70;;;1.50;;
76597;SDS011;65486;53.144;18.134;2023-07-31T07:55:19;2.70;;;1.10;;
76597;SDS011;65486;53.144;18.134;2023-07-31T07:57:47;7.30;;;1.20;;
76597;SDS011;65486;53.144;18.134;2023-07-31T08:00:16;4.80;;;1.50;;
76597;SDS011;65486;53.144;18.134;2023-07-31T08:02:43;3.70;;;1.10;;
76597;SDS011;65486;53.144;18.134;2023-07-31T08:05:11;3.00;;;1.30;;
76597;SDS011;65486;53.144;18.134;2023-07-31T08:07:37;4.00;;;1.10;;
76597;SDS011;65486;53.144;18.134;2023-07-31T08:10:04;4.40;;;1.00;;
76597;SDS011;65486;53.144;18.134;2023-07-31T08:12:32;2.80;;;0.80;;
76597;SDS011;65486;53.144;18.134;2023-07-31T08:14:59;4.10;;;1.40;;
76597;SDS011;65486;53.144;18.134;2023-07-31T08:17:26;5.60;;;1.10;;
76597;SDS011;65486;53.144;18.134;2023-07-31T08:19:53;3.10;;;1.10;;
76597;SDS011;65486;53.144;18.134;2023-07-31T08:22:22;5.30;;;1.70;;
76597;SDS011;65486;53.144;18.134;2023-07-31T08:24:53;3.20;;;1.20;;
76597;SDS011;65486;53.144;18.134;2023-07-31T08:27:20;7.00;;;1.10;;
76597;SDS011;65486;53.144;18.134;2023-07-31T08:29:48;4.00;;;1.10;;
76597;SDS011;65486;53.144;18.134;2023-07-31T08:32:18;4.60;;;1.40;;
76597;SDS011;65486;53.144;18.134;2023-07-31T08:34:45;3.20;;;0.90;;
76597;SDS011;65486;53.144;18.134;2023-07-31T08:37:12;3.60;;;0.80;;
76597;SDS011;65486;53.144;18.134;2023-07-31T08:39:39;3.30;;;1.00;;
76597;SDS011;65486;53.144;18.134;2023-07-31T08:42:09;2.50;;;1.30;;
76597;SDS011;65486;53.144;18.134;2023-07-31T08:44:36;5.80;;;0.90;;
76597;SDS011;65486;53.144;18.134;2023-07-31T08:47:04;6.10;;;1.40;;
76597;SDS011;65486;53.144;18.134;2023-07-31T08:49:32;3.60;;;1.50;;
76597;SDS011;65486;53.144;18.134;2023-07-31T08:52:03;4.30;;;1.10;;
76597;SDS011;65486;53.144;18.134;2023-07-31T08:54:33;4.80;;;1.00;;
76597;SDS011;65486;53.144;18.134;2023-07-31T08:57:00;4.40;;;1.00;;
76597;SDS011;65486;53.144;18.134;2023-07-31T08:59:29;4.90;;;0.90;;
76597;SDS011;65486;53.144;18.134;2023-07-31T09:01:59;3.20;;;0.80;;
76597;SDS011;65486;53.144;18.134;2023-07-31T09:04:31;3.10;;;1.10;;
76597;SDS011;65486;53.144;18.134;2023-07-31T09:07:02;3.40;;;1.00;;
76597;SDS011;65486;53.144;18.134;2023-07-31T09:09:31;1.80;;;0.80;;
76597;SDS011;65486;53.144;18.134;2023-07-31T09:11:58;2.80;;;0.70;;
76597;SDS011;65486;53.144;18.134;2023-07-31T09:14:26;2.40;;;0.90;;
76597;SDS011;65486;53.144;18.134;2023-07-31T09:16:54;6.00;;;1.00;;
76597;SDS011;65486;53.144;18.134;2023-07-31T09:19:27;2.20;;;0.70;;
76597;SDS011;65486;53.144;18.134;2023-07-31T09:22:02;4.20;;;0.90;;
76597;SDS011;65486;53.144;18.134;2023-07-31T09:24:31;4.10;;;0.90;;
76597;SDS011;65486;53.144;18.134;2023-07-31T09:27:00;7.20;;;1.00;;
76597;SDS011;65486;53.144;18.134;2023-07-31T09:29:28;4.20;;;1.70;;
76597;SDS011;65486;53.144;18.134;2023-07-31T09:31:56;3.10;;;1.10;;
76597;SDS011;65486;53.144;18.134;2023-07-31T09:34:31;3.90;;;1.60;;
76597;SDS011;65486;53.144;18.134;2023-07-31T09:37:07;2.90;;;1.10;;
76597;SDS011;65486;53.144;18.134;2023-07-31T09:39:45;4.80;;;1.20;;
76597;SDS011;65486;53.144;18.134;2023-07-31T09:42:13;5.70;;;1.60;;
76597;SDS011;65486;53.144;18.134;2023-07-31T09:44:40;4.20;;;1.30;;
76597;SDS011;65486;53.144;18.134;2023-07-31T09:47:21;5.30;;;1.40;;
76597;SDS011;65486;53.144;18.134;2023-07-31T09:49:50;5.70;;;1.90;;
76597;SDS011;65486;53.144;18.134;2023-07-31T09:52:17;3.70;;;1.30;;
76597;SDS011;65486;53.144;18.134;2023-07-31T09:54:44;4.30;;;1.40;;
76597;SDS011;65486;53.144;18.134;2023-07-31T09:57:11;3.90;;;2.00;;
76597;SDS011;65486;53.144;18.134;2023-07-31T09:59:39;3.70;;;1.80;;
76597;SDS011;65486;53.144;18.134;2023-07-31T10:02:08;3.80;;;1.40;;
76597;SDS011;65486;53.144;18.134;2023-07-31T10:04:49;3.50;;;1.90;;
76597;SDS011;65486;53.144;18.134;2023-07-31T10:07:17;4.80;;;1.90;;
76597;SDS011;65486;53.144;18.134;2023-07-31T10:09:45;5.90;;;2.00;;
76597;SDS011;65486;53.144;18.134;2023-07-31T10:12:15;6.00;;;1.90;;
76597;SDS011;65486;53.144;18.134;2023-07-31T10:14:45;5.60;;;2.60;;
76597;SDS011;65486;53.144;18.134;2023-07-31T10:17:12;4.70;;;2.50;;
76597;SDS011;65486;53.144;18.134;2023-07-31T10:19:41;4.80;;;2.60;;
76597;SDS011;65486;53.144;18.134;2023-07-31T10:22:10;4.80;;;2.50;;
76597;SDS011;65486;53.144;18.134;2023-07-31T10:24:38;5.00;;;2.20;;
76597;SDS011;65486;53.144;18.134;2023-07-31T10:27:06;6.20;;;2.10;;
76597;SDS011;65486;53.144;18.134;2023-07-31T10:29:36;4.30;;;2.30;;
76597;SDS011;65486;53.144;18.134;2023-07-31T10:32:06;4.40;;;2.30;;
76597;SDS011;65486;53.144;18.134;2023-07-31T10:34:38;4.90;;;2.60;;
76597;SDS011;65486;53.144;18.134;2023-07-31T10:37:25;9.20;;;3.50;;
76597;SDS011;65486;53.144;18.134;2023-07-31T10:39:55;6.00;;;3.10;;
76597;SDS011;65486;53.144;18.134;2023-07-31T10:42:31;6.70;;;2.40;;
76597;SDS011;65486;53.144;18.134;2023-07-31T10:45:11;4.50;;;2.40;;
76597;SDS011;65486;53.144;18.134;2023-07-31T10:47:47;5.80;;;2.30;;
76597;SDS011;65486;53.144;18.134;2023-07-31T10:50:21;4.10;;;2.30;;
76597;SDS011;65486;53.144;18.134;2023-07-31T10:52:51;5.10;;;1.90;;
76597;SDS011;65486;53.144;18.134;2023-07-31T11:00:40;5.60;;;2.10;;
76597;SDS011;65486;53.144;18.134;2023-07-31T11:03:15;7.20;;;2.40;;
76597;SDS011;65486;53.144;18.134;2023-07-31T11:08:18;6.30;;;2.00;;
76597;SDS011;65486;53.144;18.134;2023-07-31T11:10:47;6.20;;;2.70;;
76597;SDS011;65486;53.144;18.134;2023-07-31T11:13:16;5.50;;;2.90;;
76597;SDS011;65486;53.144;18.134;2023-07-31T11:15:43;6.70;;;3.00;;
76597;SDS011;65486;53.144;18.134;2023-07-31T11:18:10;9.10;;;2.60;;
76597;SDS011;65486;53.144;18.134;2023-07-31T11:20:38;6.00;;;3.00;;
76597;SDS011;65486;53.144;18.134;2023-07-31T11:23:07;5.80;;;3.00;;
76597;SDS011;65486;53.144;18.134;2023-07-31T11:25:37;6.70;;;2.70;;
76597;SDS011;65486;53.144;18.134;2023-07-31T11:28:09;5.70;;;2.20;;
76597;SDS011;65486;53.144;18.134;2023-07-31T11:30:39;5.20;;;2.20;;
76597;SDS011;65486;53.144;18.134;2023-07-31T11:33:10;3.10;;;1.20;;
76597;SDS011;65486;53.144;18.134;2023-07-31T11:40:53;3.40;;;1.50;;
76597;SDS011;65486;53.144;18.134;2023-07-31T11:43:23;4.90;;;1.20;;
76597;SDS011;65486;53.144;18.134;2023-07-31T11:45:51;3.70;;;1.50;;
76597;SDS011;65486;53.144;18.134;2023-07-31T11:48:21;6.70;;;2.00;;
76597;SDS011;65486;53.144;18.134;2023-07-31T11:50:52;3.40;;;1.10;;
76597;SDS011;65486;53.144;18.134;2023-07-31T11:53:28;3.70;;;1.30;;
76597;SDS011;65486;53.144;18.134;2023-07-31T11:56:03;4.00;;;1.50;;
76597;SDS011;65486;53.144;18.134;2023-07-31T11:58:32;6.20;;;1.40;;
76597;SDS011;65486;53.144;18.134;2023-07-31T12:01:01;4.80;;;1.80;;
76597;SDS011;65486;53.144;18.134;2023-07-31T12:03:30;4.40;;;1.70;;
76597;SDS011;65486;53.144;18.134;2023-07-31T12:05:58;3.10;;;1.50;;
76597;SDS011;65486;53.144;18.134;2023-07-31T12:08:26;6.00;;;1.20;;
76597;SDS011;65486;53.144;18.134;2023-07-31T12:10:53;4.50;;;1.40;;
76597;SDS011;65486;53.144;18.134;2023-07-31T12:13:25;3.10;;;1.30;;
76597;SDS011;65486;53.144;18.134;2023-07-31T12:15:56;3.50;;;1.30;;
76597;SDS011;65486;53.144;18.134;2023-07-31T12:18:27;4.00;;;1.70;;
76597;SDS011;65486;53.144;18.134;2023-07-31T12:20:57;3.70;;;1.40;;
76597;SDS011;65486;53.144;18.134;2023-07-31T12:23:26;4.20;;;1.30;;
76597;SDS011;65486;53.144;18.134;2023-07-31T12:26:14;5.60;;;1.80;;
76597;SDS011;65486;53.144;18.134;2023-07-31T12:28:47;3.20;;;1.50;;
76597;SDS011;65486;53.144;18.134;2023-07-31T12:31:22;3.30;;;1.50;;
76597;SDS011;65486;53.144;18.134;2023-07-31T12:33:50;2.20;;;1.20;;
76597;SDS011;65486;53.144;18.134;2023-07-31T12:36:20;2.90;;;1.60;;
76597;SDS011;65486;53.144;18.134;2023-07-31T12:38:51;1.50;;;1.10;;
76597;SDS011;65486;53.144;18.134;2023-07-31T12:41:19;2.10;;;1.00;;
76597;SDS011;65486;53.144;18.134;2023-07-31T12:43:46;2.30;;;1.30;;
76597;SDS011;65486;53.144;18.134;2023-07-31T12:46:13;3.40;;;1.00;;
76597;SDS011;65486;53.144;18.134;2023-07-31T12:48:41;2.90;;;0.90;;
76597;SDS011;65486;53.144;18.134;2023-07-31T12:51:09;5.40;;;1.30;;
76597;SDS011;65486;53.144;18.134;2023-07-31T12:53:38;4.70;;;1.30;;
76597;SDS011;65486;53.144;18.134;2023-07-31T12:56:05;3.20;;;1.20;;
76597;SDS011;65486;53.144;18.134;2023-07-31T12:58:32;2.40;;;0.90;;
76597;SDS011;65486;53.144;18.134;2023-07-31T13:00:59;3.00;;;1.10;;
76597;SDS011;65486;53.144;18.134;2023-07-31T13:03:27;2.30;;;1.40;;
76597;SDS011;65486;53.144;18.134;2023-07-31T13:05:54;4.00;;;1.50;;
76597;SDS011;65486;53.144;18.134;2023-07-31T13:08:22;2.70;;;1.20;;
76597;SDS011;65486;53.144;18.134;2023-07-31T13:10:49;2.30;;;1.50;;
76597;SDS011;65486;53.144;18.134;2023-07-31T13:13:16;3.30;;;1.50;;
76597;SDS011;65486;53.144;18.134;2023-07-31T13:15:44;4.20;;;1.60;;
76597;SDS011;65486;53.144;18.134;2023-07-31T13:18:12;3.00;;;1.90;;
76597;SDS011;65486;53.144;18.134;2023-07-31T13:20:38;3.40;;;1.80;;
76597;SDS011;65486;53.144;18.134;2023-07-31T13:23:06;2.80;;;1.90;;
76597;SDS011;65486;53.144;18.134;2023-07-31T13:25:33;3.80;;;1.80;;
76597;SDS011;65486;53.144;18.134;2023-07-31T13:28:03;3.90;;;1.90;;
76597;SDS011;65486;53.144;18.134;2023-07-31T13:30:34;3.10;;;1.50;;
76597;SDS011;65486;53.144;18.134;2023-07-31T13:33:01;4.80;;;1.50;;
76597;SDS011;65486;53.144;18.134;2023-07-31T13:35:29;4.10;;;2.80;;
76597;SDS011;65486;53.144;18.134;2023-07-31T13:38:01;5.10;;;1.90;;
76597;SDS011;65486;53.144;18.134;2023-07-31T13:40:28;3.40;;;1.90;;
76597;SDS011;65486;53.144;18.134;2023-07-31T13:42:55;3.30;;;1.70;;
76597;SDS011;65486;53.144;18.134;2023-07-31T13:45:23;3.90;;;1.70;;
76597;SDS011;65486;53.144;18.134;2023-07-31T13:47:50;4.90;;;1.80;;
76597;SDS011;65486;53.144;18.134;2023-07-31T13:50:18;7.50;;;2.30;;
76597;SDS011;65486;53.144;18.134;2023-07-31T13:52:49;5.10;;;2.30;;
76597;SDS011;65486;53.144;18.134;2023-07-31T13:55:16;4.60;;;1.80;;
76597;SDS011;65486;53.144;18.134;2023-07-31T13:57:43;3.70;;;1.70;;
76597;SDS011;65486;53.144;18.134;2023-07-31T14:00:14;4.30;;;2.10;;
76597;SDS011;65486;53.144;18.134;2023-07-31T14:02:42;4.90;;;1.40;;
76597;SDS011;65486;53.144;18.134;2023-07-31T14:05:09;4.10;;;1.80;;
76597;SDS011;65486;53.144;18.134;2023-07-31T14:07:36;3.60;;;1.60;;
76597;SDS011;65486;53.144;18.134;2023-07-31T14:10:04;6.40;;;2.00;;
76597;SDS011;65486;53.144;18.134;2023-07-31T14:12:32;5.00;;;1.50;;
76597;SDS011;65486;53.144;18.134;2023-07-31T14:14:59;4.20;;;2.10;;
76597;SDS011;65486;53.144;18.134;2023-07-31T14:17:26;4.00;;;1.80;;
76597;SDS011;65486;53.144;18.134;2023-07-31T14:19:53;11.30;;;2.90;;
76597;SDS011;65486;53.144;18.134;2023-07-31T14:22:30;5.30;;;1.80;;
76597;SDS011;65486;53.144;18.134;2023-07-31T14:25:00;5.10;;;2.10;;
76597;SDS011;65486;53.144;18.134;2023-07-31T14:27:29;10.30;;;1.50;;
76597;SDS011;65486;53.144;18.134;2023-07-31T14:29:58;4.10;;;2.20;;
76597;SDS011;65486;53.144;18.134;2023-07-31T14:32:26;5.00;;;1.90;;
76597;SDS011;65486;53.144;18.134;2023-07-31T14:34:53;4.20;;;2.00;;
76597;SDS011;65486;53.144;18.134;2023-07-31T14:37:22;2.80;;;1.50;;
76597;SDS011;65486;53.144;18.134;2023-07-31T14:40:22;4.80;;;1.80;;
76597;SDS011;65486;53.144;18.134;2023-07-31T14:42:49;7.10;;;2.00;;
76597;SDS011;65486;53.144;18.134;2023-07-31T14:45:15;5.20;;;2.70;;
76597;SDS011;65486;53.144;18.134;2023-07-31T14:47:42;5.40;;;2.30;;
76597;SDS011;65486;53.144;18.134;2023-07-31T14:50:09;7.90;;;2.50;;
76597;SDS011;65486;53.144;18.134;2023-07-31T14:52:37;4.10;;;2.60;;
76597;SDS011;65486;53.144;18.134;2023-07-31T14:55:05;3.90;;;1.50;;
76597;SDS011;65486;53.144;18.134;2023-07-31T14:57:33;5.00;;;2.00;;
76597;SDS011;65486;53.144;18.134;2023-07-31T15:00:05;3.50;;;1.50;;
76597;SDS011;65486;53.144;18.134;2023-07-31T15:02:36;3.90;;;2.20;;